Time;durP1;ratioP1;P1;durP2;ratioP2;P2;SDS_P1;SDS_P2;PMS_P1;PMS_P2;Temp;Humidity;BMP_temperature;BMP_pressure;BME280_temperature;BME280_humidity;BME280_pressure;Samples;Min_cycle;Max_cycle;Signal;HPM_P1;HPM_P2
2021/12/19 00:00:27;;;;;;;23.00;11.32;;;;;;;5.40;100.00;103664.91;5113397;28;20020;-85
2021/12/19 00:10:55;;;;;;;29.35;12.05;;;;;;;5.43;100.00;103659.00;5114338;28;20084;-85
2021/12/19 00:13:24;;;;;;;22.55;12.52;;;;;;;5.40;100.00;103653.69;5113462;28;20028;-85
2021/12/19 00:15:50;;;;;;;22.42;11.93;;;;;;;5.38;100.00;103642.38;5094801;28;20456;-85
2021/12/19 00:18:15;;;;;;;26.73;12.43;;;;;;;5.41;100.00;103650.28;5093896;28;20028;-85
2021/12/19 00:20:41;;;;;;;23.65;11.70;;;;;;;5.39;100.00;103646.72;5092185;28;20039;-85
2021/12/19 00:23:06;;;;;;;23.92;12.02;;;;;;;5.37;100.00;103646.69;5093565;28;20028;-85
2021/12/19 00:25:31;;;;;;;22.92;11.00;;;;;;;5.33;100.00;103636.13;5093445;28;20034;-84
2021/12/19 00:27:57;;;;;;;24.35;11.65;;;;;;;5.38;100.00;103645.84;5092233;28;20564;-85
2021/12/19 00:30:22;;;;;;;22.27;11.90;;;;;;;5.39;100.00;103636.38;5093788;28;20028;-86
2021/12/19 00:32:47;;;;;;;21.23;11.43;;;;;;;5.38;100.00;103642.38;5095127;28;20032;-85
2021/12/19 00:35:12;;;;;;;24.88;11.93;;;;;;;5.33;100.00;103629.25;5113198;28;20108;-85
2021/12/19 00:37:38;;;;;;;28.67;12.07;;;;;;;5.29;100.00;103618.69;5113279;28;20024;-85
2021/12/19 00:40:04;;;;;;;26.70;12.68;;;;;;;5.30;100.00;103620.50;5113701;28;20375;-85
2021/12/19 00:42:36;;;;;;;27.20;13.35;;;;;;;5.33;100.00;103634.44;5112802;28;20107;-85
2021/12/19 00:45:15;;;;;;;27.40;12.20;;;;;;;5.33;100.00;103637.03;5113661;28;20520;-86
2021/12/19 00:47:41;;;;;;;31.65;13.40;;;;;;;5.33;100.00;103631.84;5111090;28;20024;-86
2021/12/19 00:50:06;;;;;;;26.17;12.55;;;;;;;5.32;100.00;103624.88;5112836;28;20027;-85
2021/12/19 00:52:31;;;;;;;33.90;13.52;;;;;;;5.36;100.00;103634.56;5113171;28;20023;-85
2021/12/19 00:54:57;;;;;;;25.42;12.45;;;;;;;5.34;100.00;103628.44;5112245;28;20030;-86
2021/12/19 00:57:22;;;;;;;30.45;13.38;;;;;;;5.36;100.00;103631.06;5112847;28;20400;-85
2021/12/19 00:59:47;;;;;;;31.73;13.45;;;;;;;5.33;100.00;103628.34;5112651;28;20031;-85
2021/12/19 01:02:13;;;;;;;30.50;12.73;;;;;;;5.29;100.00;103622.16;5109784;28;20042;-85
2021/12/19 01:04:38;;;;;;;33.55;13.48;;;;;;;5.30;100.00;103621.38;5099575;28;20020;-85
2021/12/19 01:07:04;;;;;;;35.28;14.65;;;;;;;5.29;100.00;103619.59;5113348;28;20020;-85
2021/12/19 01:09:30;;;;;;;36.13;14.25;;;;;;;5.29;100.00;103618.69;5112265;28;20479;-85
2021/12/19 01:11:56;;;;;;;36.90;14.38;;;;;;;5.29;100.00;103627.34;5112850;28;20331;-85
2021/12/19 01:14:21;;;;;;;36.35;14.30;;;;;;;5.29;100.00;103629.94;5113378;27;20039;-85
2021/12/19 01:16:47;;;;;;;34.47;14.57;;;;;;;5.23;100.00;103614.19;5111002;28;20533;-85
2021/12/19 01:19:12;;;;;;;34.75;14.88;;;;;;;5.25;100.00;103619.41;5113107;28;20024;-84
2021/12/19 01:21:38;;;;;;;35.88;14.70;;;;;;;5.24;100.00;103615.94;5112387;28;20035;-85
2021/12/19 01:24:04;;;;;;;34.50;14.43;;;;;;;5.25;100.00;103611.63;5112243;28;20568;-85
2021/12/19 01:26:29;;;;;;;37.80;15.13;;;;;;;5.25;100.00;103606.47;5112410;28;20552;-85
2021/12/19 01:28:54;;;;;;;36.67;14.13;;;;;;;5.24;100.00;103609.88;5112680;28;20028;-85
2021/12/19 01:31:20;;;;;;;35.83;13.98;;;;;;;5.23;100.00;103609.00;5112172;28;20051;-84
2021/12/19 01:33:45;;;;;;;35.95;13.52;;;;;;;5.23;100.00;103603.81;5103808;28;20031;-86
2021/12/19 01:36:12;;;;;;;33.55;14.10;;;;;;;5.19;100.00;103594.16;5093089;28;20024;-84
2021/12/19 01:38:37;;;;;;;37.22;13.82;;;;;;;5.21;100.00;103602.88;5090919;28;20090;-85
2021/12/19 01:41:03;;;;;;;37.72;14.43;;;;;;;5.19;100.00;103595.84;5092027;28;20399;-85
2021/12/19 01:43:31;;;;;;;31.90;13.15;;;;;;;5.19;100.00;103596.72;5092081;28;20023;-85
2021/12/19 01:45:57;;;;;;;36.08;13.32;;;;;;;5.19;100.00;103599.31;5091360;28;20487;-86
2021/12/19 01:48:23;;;;;;;35.65;13.48;;;;;;;5.17;100.00;103600.97;5093795;28;20105;-85
2021/12/19 01:50:49;;;;;;;36.92;12.90;;;;;;;5.17;100.00;103608.72;5112191;28;20447;-85
2021/12/19 01:53:15;;;;;;;33.72;12.73;;;;;;;5.16;100.00;103601.78;5109898;28;20039;-85
2021/12/19 01:55:42;;;;;;;31.05;11.68;;;;;;;5.14;100.00;103598.25;5112127;28;20526;-85
2021/12/19 01:58:08;;;;;;;33.22;12.15;;;;;;;5.08;100.00;103588.53;5112649;28;20055;-86
2021/12/19 02:00:40;;;;;;;37.47;12.60;;;;;;;5.13;100.00;103591.28;5111277;28;20356;-85
2021/12/19 02:03:08;;;;;;;35.92;12.98;;;;;;;5.11;100.00;103588.66;5112405;28;20077;-86
2021/12/19 02:05:33;;;;;;;34.08;12.82;;;;;;;5.13;100.00;103593.88;5111938;27;20036;-85
2021/12/19 02:07:59;;;;;;;35.05;13.10;;;;;;;5.12;100.00;103579.19;5096315;28;20589;-85
2021/12/19 02:10:27;;;;;;;39.50;13.02;;;;;;;5.12;100.00;103581.78;5091994;28;20036;-85
2021/12/19 02:12:55;;;;;;;38.42;13.20;;;;;;;5.10;100.00;103580.81;5091050;28;20069;-85
2021/12/19 02:15:24;;;;;;;38.20;13.38;;;;;;;5.09;100.00;103584.22;5092007;28;20111;-86
2021/12/19 02:17:52;;;;;;;45.95;14.25;;;;;;;5.08;100.00;103580.75;5091577;28;20055;-85
2021/12/19 02:20:18;;;;;;;36.78;13.32;;;;;;;5.07;100.00;103566.06;5090870;28;20062;-85
2021/12/19 02:22:45;;;;;;;35.72;13.60;;;;;;;5.09;100.00;103576.47;5104531;28;20465;-85
2021/12/19 02:25:11;;;;;;;40.50;14.40;;;;;;;5.08;100.00;103578.19;5112247;28;20047;-86
2021/12/19 02:27:37;;;;;;;41.35;14.23;;;;;;;5.09;100.00;103576.47;5110585;28;20043;-85
2021/12/19 02:30:05;;;;;;;42.53;14.13;;;;;;;5.06;100.00;103577.22;5109122;28;20080;-85
2021/12/19 02:32:31;;;;;;;38.55;13.05;;;;;;;5.04;100.00;103567.66;5111814;28;20024;-85
2021/12/19 02:35:00;;;;;;;41.53;14.98;;;;;;;5.01;100.00;103565.81;5110033;28;20031;-85
2021/12/19 02:48:14;;;;;;;38.80;13.13;;;;;;;5.00;100.00;103548.50;5091187;28;20039;-85
2021/12/19 02:50:48;;;;;;;38.45;13.60;;;;;;;5.03;100.00;103552.94;5091175;28;20058;-85
2021/12/19 02:53:17;;;;;;;42.72;13.80;;;;;;;5.03;100.00;103555.53;5091425;28;20495;-85
2021/12/19 02:55:43;;;;;;;42.85;14.95;;;;;;;5.03;100.00;103555.53;5090274;28;20055;-85
2021/12/19 02:58:09;;;;;;;41.20;13.23;;;;;;;5.03;100.00;103546.06;5093238;28;20023;-85
2021/12/19 03:00:35;;;;;;;41.08;13.85;;;;;;;5.02;100.00;103544.31;5111432;28;20036;-85
2021/12/19 03:03:00;;;;;;;42.15;13.60;;;;;;;4.98;100.00;103533.78;5110556;28;20035;-85
2021/12/19 03:05:25;;;;;;;43.08;15.55;;;;;;;5.00;100.00;103539.88;5111517;28;20081;-86
2021/12/19 03:07:52;;;;;;;48.65;15.77;;;;;;;4.98;100.00;103536.38;5111678;28;20027;-85
2021/12/19 03:18:34;;;;;;;47.65;15.25;;;;;;;4.96;100.00;103530.22;5093059;28;20399;-85
2021/12/19 03:20:59;;;;;;;52.88;15.55;;;;;;;4.95;100.00;103531.06;5094430;28;20020;-85
2021/12/19 03:23:26;;;;;;;53.97;16.10;;;;;;;4.93;100.00;103534.44;5093745;28;20032;-86
2021/12/19 03:25:51;;;;;;;56.45;16.23;;;;;;;4.91;100.00;103525.75;5094529;28;20052;-86
2021/12/19 03:28:17;;;;;;;57.45;17.63;;;;;;;4.91;100.00;103522.28;5102215;28;20027;-86
2021/12/19 03:30:44;;;;;;;48.20;15.98;;;;;;;4.92;100.00;103524.94;5113928;28;20383;-85
2021/12/19 03:33:11;;;;;;;53.75;16.33;;;;;;;4.90;100.00;103516.25;5114901;28;20520;-85
2021/12/19 03:35:37;;;;;;;57.50;16.88;;;;;;;4.87;100.00;103502.28;5114508;28;20031;-86
2021/12/19 03:38:05;;;;;;;56.58;16.70;;;;;;;4.86;100.00;103501.41;5114336;28;20027;-86
2021/12/19 03:40:39;;;;;;;60.53;18.40;;;;;;;4.86;100.00;103496.22;5114953;28;20055;-85
2021/12/19 03:43:16;;;;;;;57.47;16.48;;;;;;;4.87;100.00;103499.69;5105573;28;20052;-86
2021/12/19 03:45:44;;;;;;;60.78;16.88;;;;;;;4.89;100.00;103505.81;5093378;28;20027;-85
2021/12/19 03:48:12;;;;;;;66.70;17.98;;;;;;;4.85;100.00;103497.06;5094352;28;20081;-85
2021/12/19 03:50:39;;;;;;;58.60;17.10;;;;;;;4.89;100.00;103498.94;5094019;28;20028;-86
2021/12/19 03:53:05;;;;;;;67.78;18.33;;;;;;;4.90;100.00;103498.16;5093705;28;20028;-85
2021/12/19 03:55:30;;;;;;;60.10;18.08;;;;;;;4.91;100.00;103499.03;5094091;28;20368;-85
2021/12/19 03:57:57;;;;;;;69.18;18.35;;;;;;;4.88;100.00;103489.44;5102660;28;20886;-85
2021/12/19 04:00:25;;;;;;;70.22;18.77;;;;;;;4.89;100.00;103488.59;5113708;28;20382;-85
2021/12/19 04:02:57;;;;;;;74.47;19.33;;;;;;;4.89;100.00;103486.03;5114535;27;20024;-84
2021/12/19 04:05:23;;;;;;;69.38;18.50;;;;;;;4.91;100.00;103481.81;5113962;28;20073;-85
2021/12/19 04:07:48;;;;;;;70.47;17.90;;;;;;;4.92;100.00;103485.28;5113988;28;20020;-85
2021/12/19 04:10:14;;;;;;;69.47;18.70;;;;;;;4.94;100.00;103491.41;5112306;28;20119;-86
2021/12/19 04:12:39;;;;;;;64.18;17.95;;;;;;;4.95;100.00;103479.34;5113074;28;20808;-85
2021/12/19 04:15:05;;;;;;;67.88;18.38;;;;;;;4.93;100.00;103477.56;5114090;28;20036;-86
2021/12/19 04:17:31;;;;;;;68.50;19.42;;;;;;;4.92;100.00;103478.41;5113858;28;20072;-85
2021/12/19 04:19:56;;;;;;;66.47;18.88;;;;;;;4.92;100.00;103462.88;5113095;28;20031;-85
2021/12/19 04:22:21;;;;;;;63.38;18.70;;;;;;;4.92;100.00;103470.63;5114249;28;20019;-85
2021/12/19 04:24:47;;;;;;;59.75;17.70;;;;;;;4.90;100.00;103461.97;5112425;28;20074;-85
2021/12/19 04:27:13;;;;;;;70.10;18.52;;;;;;;4.87;100.00;103461.81;5113237;28;20556;-86
2021/12/19 04:29:38;;;;;;;59.63;17.50;;;;;;;4.93;100.00;103459.47;5112418;28;20032;-85
2021/12/19 04:32:04;;;;;;;49.03;15.45;;;;;;;4.96;100.00;103463.00;5114123;28;20047;-87
2021/12/19 04:34:29;;;;;;;62.70;18.02;;;;;;;4.96;100.00;103458.72;5113198;28;20098;-85
2021/12/19 04:37:02;;;;;;;55.72;16.70;;;;;;;4.96;100.00;103455.25;5113582;28;20023;-85
2021/12/19 04:39:38;;;;;;;53.17;14.45;;;;;;;4.92;100.00;103454.25;5112454;28;20045;-86
2021/12/19 04:43:06;;;;;;;43.50;13.80;;;;;;;4.82;100.00;103442.66;5109747;27;20228;-86
2021/12/19 04:56:16;;;;;;;39.15;11.88;;;;;;;4.75;100.00;103448.38;5112913;28;20048;-85
2021/12/19 05:14:36;;;;;;;36.45;10.10;;;;;;;4.64;100.00;103426.34;5112007;28;20034;-85
2021/12/19 05:17:06;;;;;;;33.15;10.32;;;;;;;4.65;100.00;103425.56;5112445;28;20443;-85
2021/12/19 05:19:50;;;;;;;39.10;10.75;;;;;;;4.63;100.00;103429.75;5112662;28;20050;-85
2021/12/19 05:22:17;;;;;;;40.40;10.50;;;;;;;4.65;100.00;103434.19;5113081;28;20447;-85
2021/12/19 05:24:47;;;;;;;34.30;10.75;;;;;;;4.65;100.00;103431.59;5111754;28;20121;-86
2021/12/19 05:27:13;;;;;;;38.72;11.38;;;;;;;4.68;100.00;103431.72;5112745;28;20122;-86
2021/12/19 05:29:39;;;;;;;37.28;11.05;;;;;;;4.65;100.00;103417.81;5110034;28;20563;-85
2021/12/19 05:32:05;;;;;;;40.83;12.38;;;;;;;4.68;100.00;103430.84;5111989;28;20019;-85
2021/12/19 05:34:31;;;;;;;42.35;12.00;;;;;;;4.65;100.00;103436.78;5112853;28;20050;-85
2021/12/19 05:45:13;;;;;;;41.85;11.43;;;;;;;4.66;100.00;103435.06;5092524;28;20043;-85
2021/12/19 05:47:47;;;;;;;44.08;13.77;;;;;;;4.59;100.00;103428.75;5091750;28;20036;-85
2021/12/19 05:50:14;;;;;;;44.70;14.82;;;;;;;4.61;100.00;103433.97;5092389;28;20024;-86
2021/12/19 05:52:40;;;;;;;45.55;14.32;;;;;;;4.56;100.00;103427.75;5090928;28;20058;-85
2021/12/19 05:55:06;;;;;;;42.42;14.38;;;;;;;4.51;100.00;103421.47;5092067;28;20028;-85
2021/12/19 05:57:32;;;;;;;34.63;12.77;;;;;;;4.49;100.00;103424.03;5091810;28;20031;-86
2021/12/19 05:59:58;;;;;;;37.85;12.63;;;;;;;4.51;100.00;103424.94;5103662;28;20035;-85
2021/12/19 06:02:24;;;;;;;30.25;11.48;;;;;;;4.49;100.00;103424.03;5112368;28;20409;-86
2021/12/19 06:04:49;;;;;;;28.77;10.88;;;;;;;4.45;100.00;103423.00;5111817;28;20045;-86
2021/12/19 06:07:14;;;;;;;26.92;10.68;;;;;;;4.42;100.00;103409.97;5111638;28;20088;-86
2021/12/19 06:09:39;;;;;;;28.92;11.15;;;;;;;4.45;100.00;103407.50;5111619;28;20020;-86
2021/12/19 06:12:05;;;;;;;26.98;10.38;;;;;;;4.41;100.00;103407.28;5111521;28;20024;-85
2021/12/19 06:14:34;;;;;;;24.00;10.23;;;;;;;4.40;100.00;103409.00;5110847;28;20465;-85
2021/12/19 06:17:00;;;;;;;22.95;9.90;;;;;;;4.41;100.00;103408.19;5111944;28;20028;-85
2021/12/19 06:19:27;;;;;;;29.30;10.65;;;;;;;4.43;100.00;103418.59;5111259;28;20439;-85
2021/12/19 06:21:52;;;;;;;30.25;10.57;;;;;;;4.42;100.00;103412.53;5112035;28;20062;-85
2021/12/19 06:24:18;;;;;;;26.23;10.57;;;;;;;4.40;100.00;103409.00;5111925;28;20023;-85
2021/12/19 06:26:43;;;;;;;26.88;11.23;;;;;;;4.38;100.00;103408.06;5110618;28;20096;-86
2021/12/19 06:29:08;;;;;;;30.50;12.13;;;;;;;4.42;100.00;103404.78;5100133;28;20036;-85
2021/12/19 06:31:34;;;;;;;35.25;13.77;;;;;;;4.43;100.00;103403.09;5091591;28;20402;-86
2021/12/19 06:33:59;;;;;;;34.60;12.48;;;;;;;4.45;100.00;103404.91;5090915;28;20074;-85
2021/12/19 06:36:24;;;;;;;34.42;12.85;;;;;;;4.46;100.00;103410.97;5091483;28;20036;-86
2021/12/19 06:38:50;;;;;;;33.88;13.52;;;;;;;4.50;100.00;103405.09;5091409;28;20070;-85
2021/12/19 06:41:15;;;;;;;34.35;13.63;;;;;;;4.51;100.00;103403.41;5090924;28;20031;-85
2021/12/19 06:43:41;;;;;;;33.35;13.32;;;;;;;4.49;100.00;103398.19;5099818;28;20502;-85
2021/12/19 06:46:06;;;;;;;34.60;14.45;;;;;;;4.52;100.00;103400.03;5111960;28;20028;-85
2021/12/19 06:48:32;;;;;;;40.30;15.98;;;;;;;4.47;100.00;103398.09;5111131;28;20023;-85
2021/12/19 06:50:57;;;;;;;40.78;15.82;;;;;;;4.51;100.00;103393.94;5111541;28;20022;-85
2021/12/19 06:53:22;;;;;;;42.35;15.85;;;;;;;4.52;100.00;103387.97;5113766;28;20027;-86
2021/12/19 06:55:49;;;;;;;49.03;17.08;;;;;;;4.53;100.00;103376.81;5114436;28;20031;-85
2021/12/19 06:58:14;;;;;;;46.60;16.40;;;;;;;4.51;100.00;103368.13;5107557;28;20032;-85
2021/12/19 07:00:40;;;;;;;40.58;16.67;;;;;;;4.54;100.00;103370.81;5094894;28;20078;-86
2021/12/19 07:03:05;;;;;;;42.60;17.65;;;;;;;4.50;100.00;103360.31;5094490;28;20047;-85
2021/12/19 07:05:30;;;;;;;44.88;17.25;;;;;;;4.49;100.00;103362.03;5094861;28;20415;-86
2021/12/19 07:07:55;;;;;;;48.45;18.30;;;;;;;4.53;100.00;103365.59;5094784;28;20053;-86
2021/12/19 07:10:21;;;;;;;52.10;18.83;;;;;;;4.44;100.00;103346.31;5094349;28;20471;-85
2021/12/19 07:12:46;;;;;;;48.53;19.92;;;;;;;4.54;100.00;103367.38;5095257;28;20047;-85
2021/12/19 07:15:14;;;;;;;55.65;19.52;;;;;;;4.54;100.00;103369.94;5094749;28;20028;-86
2021/12/19 07:17:39;;;;;;;62.83;19.92;;;;;;;4.53;100.00;103363.03;5094577;28;20107;-86
2021/12/19 07:20:05;;;;;;;54.72;20.67;;;;;;;4.52;100.00;103362.16;5094813;28;20107;-86
2021/12/19 07:22:30;;;;;;;60.38;21.70;;;;;;;4.56;100.00;103358.00;5093740;28;20106;-85
2021/12/19 07:24:56;;;;;;;63.20;21.23;;;;;;;4.53;100.00;103355.28;5094798;28;20448;-85
2021/12/19 07:27:21;;;;;;;61.25;20.65;;;;;;;4.54;100.00;103359.63;5111019;28;20052;-85
2021/12/19 07:29:48;;;;;;;62.05;21.67;;;;;;;4.56;100.00;103361.44;5114096;28;20478;-85
2021/12/19 07:32:13;;;;;;;59.80;20.95;;;;;;;4.56;100.00;103363.16;5115231;28;20034;-85
2021/12/19 07:34:39;;;;;;;62.08;21.05;;;;;;;4.59;100.00;103366.75;5114451;28;20023;-86
2021/12/19 07:37:04;;;;;;;60.63;22.63;;;;;;;4.60;100.00;103359.88;5114323;27;20043;-86
2021/12/19 07:42:07;;;;;;;70.13;24.25;;;;;;;4.62;100.00;103353.06;5113635;27;20565;-86
2021/12/19 07:44:34;;;;;;;73.88;22.73;;;;;;;4.65;100.00;103346.34;5114081;28;20033;-86
2021/12/19 07:46:59;;;;;;;61.03;23.45;;;;;;;4.67;100.00;103357.59;5114622;28;20092;-85
2021/12/19 07:49:25;;;;;;;64.75;22.75;;;;;;;4.68;100.00;103345.59;5112815;28;20453;-86
2021/12/19 07:51:50;;;;;;;74.32;24.80;;;;;;;4.65;100.00;103341.16;5113470;28;20031;-86
2021/12/19 07:54:15;;;;;;;79.22;25.58;;;;;;;4.62;100.00;103340.16;5114809;28;20132;-85
2021/12/19 07:56:41;;;;;;;76.78;25.05;;;;;;;4.65;100.00;103345.44;5114209;28;20475;-86
2021/12/19 07:59:06;;;;;;;84.68;24.83;;;;;;;4.62;100.00;103329.81;5113959;28;20036;-86
2021/12/19 08:01:32;;;;;;;70.53;21.98;;;;;;;4.64;100.00;103326.50;5114299;28;20474;-85
2021/12/19 08:03:57;;;;;;;75.28;22.80;;;;;;;4.66;100.00;103327.41;5113061;28;20031;-85
2021/12/19 08:06:23;;;;;;;61.90;22.10;;;;;;;4.68;100.00;103332.66;5113762;28;20023;-86
2021/12/19 08:08:52;;;;;;;57.05;19.80;;;;;;;4.70;100.00;103338.75;5114287;28;20031;-86
2021/12/19 08:14:03;;;;;;;66.38;20.45;;;;;;;4.69;100.00;103324.09;5111332;28;20043;-86
2021/12/19 08:16:28;;;;;;;56.47;18.95;;;;;;;4.75;100.00;103319.16;5113944;28;20023;-85
2021/12/19 08:18:53;;;;;;;55.20;18.63;;;;;;;4.80;100.00;103337.44;5113068;28;20118;-86
2021/12/19 08:21:20;;;;;;;65.22;19.73;;;;;;;4.80;100.00;103330.53;5114141;28;20502;-86
2021/12/19 08:23:45;;;;;;;52.65;17.67;;;;;;;4.82;100.00;103330.63;5113489;28;20475;-86
2021/12/19 08:26:14;;;;;;;56.85;17.85;;;;;;;4.84;100.00;103329.88;5113268;28;20047;-85
2021/12/19 08:28:39;;;;;;;52.00;18.05;;;;;;;4.88;100.00;103326.59;5112156;28;20032;-85
2021/12/19 08:31:05;;;;;;;47.70;16.05;;;;;;;4.88;100.00;103321.41;5113919;28;20532;-85
2021/12/19 08:33:30;;;;;;;44.90;14.88;;;;;;;4.90;100.00;103317.19;5112861;28;20030;-86
2021/12/19 08:35:55;;;;;;;40.38;14.18;;;;;;;4.89;100.00;103310.25;5111808;28;20530;-85
2021/12/19 08:38:21;;;;;;;43.25;14.75;;;;;;;4.91;100.00;103312.91;5114063;28;20031;-85
2021/12/19 08:40:48;;;;;;;43.75;15.88;;;;;;;4.98;100.00;103311.44;5112506;28;20525;-86
2021/12/19 08:43:14;;;;;;;40.22;15.13;;;;;;;5.04;100.00;103316.84;5113718;28;20108;-85
2021/12/19 08:45:40;;;;;;;45.92;16.33;;;;;;;5.07;100.00;103317.84;5113092;28;20051;-86
2021/12/19 08:48:06;;;;;;;50.78;17.38;;;;;;;5.11;100.00;103324.91;5112746;28;20031;-85
2021/12/19 08:50:31;;;;;;;47.40;17.17;;;;;;;5.11;100.00;103324.03;5112232;28;20039;-85
2021/12/19 08:52:57;;;;;;;53.72;17.33;;;;;;;5.15;100.00;103325.91;5111953;28;20054;-86
2021/12/19 08:55:22;;;;;;;45.30;18.45;;;;;;;5.18;100.00;103322.56;5112798;28;20054;-86
2021/12/19 08:57:48;;;;;;;50.90;18.15;;;;;;;5.12;100.00;103315.44;5112865;28;20028;-86
2021/12/19 09:00:14;;;;;;;55.47;18.85;;;;;;;5.18;100.00;103315.66;5113363;28;20036;-86
2021/12/19 09:02:45;;;;;;;58.08;19.00;;;;;;;5.20;100.00;103314.03;5102021;28;20073;-86
2021/12/19 09:05:10;;;;;;;53.58;17.98;;;;;;;5.24;100.00;103304.69;5093161;28;20032;-86
2021/12/19 09:07:36;;;;;;;49.10;18.33;;;;;;;5.28;100.00;103304.84;5092679;28;20437;-86
2021/12/19 09:10:04;;;;;;;51.90;18.17;;;;;;;5.26;100.00;103303.91;5092032;28;20035;-86
2021/12/19 09:12:29;;;;;;;49.58;17.13;;;;;;;5.29;100.00;103303.13;5092424;28;20012;-85
2021/12/19 09:14:55;;;;;;;41.28;16.58;;;;;;;5.35;100.00;103309.41;5091429;28;20487;-86
2021/12/19 09:17:20;;;;;;;39.35;15.50;;;;;;;5.30;100.00;103298.03;5099774;28;20060;-86
2021/12/19 09:19:45;;;;;;;43.45;16.75;;;;;;;5.33;100.00;103300.75;5112287;28;20024;-86
2021/12/19 09:22:11;;;;;;;38.78;15.15;;;;;;;5.33;100.00;103297.25;5112476;28;20034;-86
2021/12/19 09:24:36;;;;;;;39.05;15.70;;;;;;;5.39;100.00;103300.06;5112586;28;20015;-86
2021/12/19 09:27:03;;;;;;;28.58;11.88;;;;;;;5.40;100.00;103296.69;5112742;28;20069;-85
2021/12/19 09:29:28;;;;;;;31.65;12.73;;;;;;;5.40;100.00;103299.25;5111750;28;20479;-86
2021/12/19 09:31:55;;;;;;;25.02;11.05;;;;;;;5.43;100.00;103291.63;5104700;28;20070;-86
2021/12/19 09:34:21;;;;;;;24.95;10.90;;;;;;;5.34;100.00;103275.75;5092746;28;20028;-85
2021/12/19 09:36:47;;;;;;;23.23;10.07;;;;;;;5.43;100.00;103290.72;5091333;28;20039;-85
2021/12/19 09:39:12;;;;;;;25.02;9.77;;;;;;;5.46;100.00;103285.66;5092260;28;20467;-86
2021/12/19 09:41:43;;;;;;;22.45;9.80;;;;;;;5.50;100.00;103298.78;5091863;28;20056;-86
2021/12/19 09:44:11;;;;;;;21.13;8.38;;;;;;;5.53;100.00;103290.25;5091559;28;20077;-85
2021/12/19 09:46:40;;;;;;;17.27;8.18;;;;;;;5.54;100.00;103286.81;5098116;28;20031;-86
2021/12/19 09:49:08;;;;;;;15.85;7.25;;;;;;;5.56;100.00;103298.13;5112662;28;20039;-86
2021/12/19 09:51:34;;;;;;;17.20;6.95;;;;;;;5.60;100.00;103295.69;5111573;28;20024;-85
2021/12/19 09:54:00;;;;;;;13.82;6.30;;;;;;;5.61;100.00;103288.81;5112188;28;20023;-85
2021/12/19 09:56:25;;;;;;;13.32;5.60;;;;;;;5.60;100.00;103284.47;5110690;28;20383;-85
2021/12/19 09:58:50;;;;;;;11.57;5.45;;;;;;;5.60;100.00;103287.94;5107964;28;20110;-85
2021/12/19 10:01:17;;;;;;;13.23;5.22;;;;;;;5.57;100.00;103276.59;5112437;28;20023;-85
2021/12/19 10:03:42;;;;;;;10.80;5.07;;;;;;;5.62;100.00;103287.97;5112002;28;20016;-85
2021/12/19 10:06:20;;;;;;;11.65;5.50;;;;;;;5.59;100.00;103290.44;5111682;28;20023;-86
2021/12/19 10:08:52;;;;;;;13.88;5.32;;;;;;;5.61;100.00;103281.91;5111786;28;20113;-86
2021/12/19 10:11:47;;;;;;;11.63;5.60;;;;;;;5.61;100.00;103268.09;5111504;28;20096;-85
2021/12/19 10:14:33;;;;;;;16.90;6.43;;;;;;;5.63;100.00;103280.28;5111552;28;20024;-86
2021/12/19 10:17:04;;;;;;;15.82;7.20;;;;;;;5.60;100.00;103274.13;5111866;28;20023;-85
2021/12/19 10:19:46;;;;;;;14.27;6.90;;;;;;;5.63;100.00;103280.28;5111324;28;20111;-86
2021/12/19 10:22:35;;;;;;;16.30;7.60;;;;;;;5.65;100.00;103267.38;5112326;28;20035;-86
2021/12/19 10:25:22;;;;;;;13.27;7.30;;;;;;;5.68;100.00;103264.91;5111959;28;20020;-85
2021/12/19 10:27:50;;;;;;;15.63;7.50;;;;;;;5.73;100.00;103263.38;5110936;28;20044;-86
2021/12/19 10:30:23;;;;;;;16.38;8.32;;;;;;;5.72;100.00;103259.03;5115446;28;20028;-86
2021/12/19 10:33:07;;;;;;;18.48;8.05;;;;;;;5.79;100.00;103252.34;5115359;28;20027;-85
2021/12/19 10:35:33;;;;;;;15.10;7.53;;;;;;;5.79;100.00;103255.81;5115026;28;20502;-86
2021/12/19 10:37:59;;;;;;;16.67;8.10;;;;;;;5.83;100.00;103260.28;5115885;28;20036;-86
2021/12/19 10:40:25;;;;;;;16.42;7.75;;;;;;;5.81;100.00;103254.16;5114959;28;20830;-86
2021/12/19 10:43:04;;;;;;;13.95;7.25;;;;;;;5.81;100.00;103248.09;5114930;28;20026;-87
2021/12/19 10:45:42;;;;;;;14.75;7.72;;;;;;;5.74;100.00;103231.47;5115749;28;20524;-86
2021/12/19 10:48:22;;;;;;;15.48;7.50;;;;;;;5.79;100.00;103240.28;5115281;28;20395;-85
2021/12/19 10:50:51;;;;;;;16.38;7.40;;;;;;;5.75;100.00;103238.41;5115337;28;20019;-86
2021/12/19 10:53:18;;;;;;;16.40;7.57;;;;;;;5.74;100.00;103234.06;5114931;28;20046;-86
2021/12/19 10:55:46;;;;;;;14.40;7.22;;;;;;;5.73;100.00;103231.44;5115174;28;20142;-86
2021/12/19 10:58:45;;;;;;;17.23;7.82;;;;;;;5.76;100.00;103228.94;5105397;28;20467;-86
2021/12/19 11:01:19;;;;;;;18.42;7.63;;;;;;;5.76;100.00;103229.81;5094361;28;20035;-86
2021/12/19 11:03:54;;;;;;;;;;;;;;;5.80;100.00;103228.22;5095309;28;20038;-86
2021/12/19 11:06:27;;;;;;;13.32;6.95;;;;;;;5.75;100.00;103222.00;5095534;28;19912;-85
2021/12/19 11:08:53;;;;;;;;;;;;;;;5.80;100.00;103225.63;5111630;28;20027;-86
2021/12/19 11:11:31;;;;;;;12.52;7.28;;;;;;;5.76;100.00;103219.47;5115595;28;19916;-86
2021/12/19 11:13:57;;;;;;;15.48;7.25;;;;;;;5.83;100.00;103221.44;5115015;28;20054;-85
2021/12/19 11:16:23;;;;;;;12.13;6.80;;;;;;;5.89;100.00;103212.13;5114990;28;20024;-86
2021/12/19 11:18:48;;;;;;;13.80;7.20;;;;;;;5.87;100.00;103202.59;5115171;28;20042;-86
2021/12/19 11:21:14;;;;;;;11.93;7.00;;;;;;;5.89;100.00;103199.19;5115272;28;20039;-86
2021/12/19 11:23:40;;;;;;;13.45;7.03;;;;;;;5.91;100.00;103198.38;5094567;28;20028;-85
2021/12/19 11:26:05;;;;;;;12.70;7.25;;;;;;;5.92;100.00;103194.09;5094671;28;20352;-86
2021/12/19 11:28:31;;;;;;;14.63;7.22;;;;;;;5.88;100.00;103177.56;5093771;28;20056;-86
2021/12/19 11:30:57;;;;;;;13.82;7.10;;;;;;;5.91;100.00;103171.63;5094677;28;20024;-86
2021/12/19 11:33:40;;;;;;;15.70;7.45;;;;;;;5.91;100.00;103163.84;5094823;28;20031;-86
2021/12/19 11:36:07;;;;;;;12.07;6.90;;;;;;;5.89;100.00;103163.81;5093393;28;20518;-86
2021/12/19 11:38:36;;;;;;;10.95;6.10;;;;;;;5.89;100.00;103152.59;5093814;28;20035;-85
2021/12/19 11:41:09;;;;;;;12.25;6.50;;;;;;;5.94;100.00;103161.41;5094298;28;20035;-85
2021/12/19 11:43:39;;;;;;;11.95;6.55;;;;;;;5.99;100.00;103157.25;5099634;28;20031;-86
2021/12/19 11:46:14;;;;;;;9.60;6.25;;;;;;;6.05;100.00;103160.06;5115167;28;20104;-85
2021/12/19 11:48:39;;;;;;;11.50;5.20;;;;;;;6.11;100.00;103152.47;5114341;28;20160;-86
2021/12/19 11:51:17;;;;;;;9.27;5.00;;;;;;;6.06;100.00;103152.31;5114068;28;20102;-86
2021/12/19 11:53:43;;;;;;;9.15;4.88;;;;;;;6.06;100.00;103149.72;5114484;28;20026;-86
2021/12/19 11:56:16;;;;;;;8.07;5.07;;;;;;;6.05;100.00;103140.22;5114847;28;20099;-86
2021/12/19 11:58:48;;;;;;;6.38;4.40;;;;;;;6.05;100.00;103149.69;5112437;27;20032;-86
2021/12/19 12:01:19;;;;;;;9.57;5.32;;;;;;;6.08;100.00;103145.50;5112550;28;20062;-86
2021/12/19 12:03:57;;;;;;;8.15;5.03;;;;;;;6.06;100.00;103135.91;5113177;28;20592;-85
2021/12/19 12:06:28;;;;;;;6.75;4.20;;;;;;;6.02;100.00;103134.94;5114846;28;20050;-86
2021/12/19 12:09:02;;;;;;;9.68;4.85;;;;;;;5.99;100.00;103132.25;5114224;28;20368;-86
2021/12/19 12:11:28;;;;;;;9.30;4.75;;;;;;;5.96;100.00;103128.69;5113598;28;20031;-86
2021/12/19 12:13:53;;;;;;;5.95;3.95;;;;;;;5.92;100.00;103137.13;5114193;28;20023;-86
2021/12/19 12:16:32;;;;;;;6.53;4.72;;;;;;;5.86;100.00;103133.53;5112510;28;20062;-86
2021/12/19 12:19:01;;;;;;;9.95;4.80;;;;;;;5.87;100.00;103130.09;5113466;28;20042;-85
2021/12/19 12:21:39;;;;;;;12.55;5.90;;;;;;;5.85;100.00;103115.34;5113855;28;20486;-86